< < Back
Terminal Aerodrome Forecast


Current Version              Previous Versions:   1  2  3  4  5  6  7  8  9  

Terminal Aerodrome Forecast

525
FTUS42 KFFC 280526
TAFCSG
TAF
KCSG 280526Z 2806/2906 32005KT P6SM SKC
     FM281400 VRB03KT P6SM SKC
     FM282100 18003KT P6SM SKC
     FM290000 00000KT P6SM SKC=

Latest METAR

543
SAUS70 KWBC 282300
MTRCSG
METAR KCSG 282251Z 00000KT 10SM CLR 09/M08 A3030 RMK AO2 SLP262
T00941083


USA.gov is the U.S. government's official web portal to all federal, state and local government web resources and services.